Stillwater, OK (74075)

08:38 CDT le 24 août 2016 (GMT -0500)
Asco Aerospace USA LLC Stillwater Industrial Park | | Change Station

Alt. 965 ft 36.15 °N, 97.05 °W | Updated 9 minutes ago

Clear
Ciel dégagé
81.7 ° F
Paraît 85 ° F
N
13.0
Vent Variable Vent de SO
Gusts 16.0 mph

Aujourd'hui
Haut(e) -- | Bas -- ° F
--% Risque de précip.
Hier
Haut(e) -- | Bas -- ° F
Precip. -- pouce
Pression 29.97 pouce
Visibilité 10.0 Miles terrestres
Nuages Ciel dégagé
indice de chaleur 85 ° F
Point de rosée 70 ° F
Humidité 68%
Précipitations 0.00 pouce
Profondeur de la couche neigeuse Non disponible.
6:54 AM 8:06 PM
Lune gibbeuse décroissante, 57% visible
METAR KSWO 241253Z 19007KT 10SM CLR 27/20 A3001 RMK AO2 SLP147 T02670200
Pression 29.97 pouce
Visibilité 10.0 Miles terrestres
Nuages Ciel dégagé
indice de chaleur 85 ° F
Point de rosée 70 ° F
Humidité 68%
Précipitations 0.00 pouce
Profondeur de la couche neigeuse Non disponible.
6:54 AM 8:06 PM
Lune gibbeuse décroissante, 57% visible
METAR KSWO 241253Z 19007KT 10SM CLR 27/20 A3001 RMK AO2 SLP147 T02670200

10-Day Weather Forecast

Almanac

Astronomie

Aug. 24, 2016 Lever Coucher
Temps réel
Crépuscule civil
Crépuscule nautique
Crépuscule astronomique
Lune
Durée de lumière visible
Longueur du jour
Tomorrow will be .
, % of the Moon is Illuminated

Extrêmes aujourd'hui

State Highs State Lows

Community

WunderPhotos

Upload Photos

1,934,599 Photos téléchargées !

WunderBlog® & News

Nearby

Qualité de l'air

  Qualité de l'air Indice de la qualité de l'air Polluant
Not available.

Épaisseur de neige

Station Depth Altitude

Activité sismique

Ville Distance Mag. Time & Date
Minimum magnitude displayed is 2.5.

Températures des eaux côtières

Lieu Température

Stations

Stations météo à proximité

Emplacement de la station Température Refroidissement éolien Point de rosée Humidité Vent Precip. Alt. Mise à jour Type
                   

Watches & Warnings

There are currently no watches in effect.